Time;durP1;ratioP1;P1;durP2;ratioP2;P2;SDS_P1;SDS_P2;PMS_P1;PMS_P2;Temp;Humidity;BMP_temperature;BMP_pressure;BME280_temperature;BME280_humidity;BME280_pressure;Samples;Min_cycle;Max_cycle;Signal;HPM_P1;HPM_P2
2022/03/25 00:00:44;;;;;;;10.48;6.72;;;;;;;;;;2069001;28;20030;-79
2022/03/25 00:02:03;;;;;;;9.38;6.57;;;;;;;;;;2072282;28;20026;-79
2022/03/25 00:03:22;;;;;;;8.88;6.28;;;;;;;;;;2072450;28;20026;-78
2022/03/25 00:04:41;;;;;;;13.68;6.82;;;;;;;;;;2071290;28;20490;-80
2022/03/25 00:06:00;;;;;;;11.77;6.50;;;;;;;;;;2073293;28;20029;-79
2022/03/25 00:07:19;;;;;;;9.88;6.90;;;;;;;;;;2072269;28;20022;-79
2022/03/25 00:08:38;;;;;;;9.05;6.78;;;;;;;;;;2072504;28;20034;-79
2022/03/25 00:09:57;;;;;;;8.63;7.07;;;;;;;;;;2062230;28;20034;-79
2022/03/25 00:11:16;;;;;;;11.88;6.18;;;;;;;;;;2071092;28;20410;-80
2022/03/25 00:12:35;;;;;;;8.55;6.13;;;;;;;;;;2073450;28;20057;-79
2022/03/25 00:13:54;;;;;;;8.55;6.78;;;;;;;;;;2063908;28;20034;-80
2022/03/25 00:15:12;;;;;;;13.52;6.15;;;;;;;;;;2071437;28;20097;-79
2022/03/25 00:16:32;;;;;;;10.02;6.40;;;;;;;;;;2073478;28;21147;-80
2022/03/25 00:17:51;;;;;;;10.13;6.57;;;;;;;;;;2072139;28;20030;-79
2022/03/25 00:19:10;;;;;;;12.60;6.50;;;;;;;;;;2071282;28;20029;-79
2022/03/25 00:20:29;;;;;;;9.82;5.93;;;;;;;;;;2072773;28;20411;-79
2022/03/25 00:21:48;;;;;;;8.30;6.38;;;;;;;;;;2072143;28;20026;-80
2022/03/25 00:23:07;;;;;;;8.68;6.32;;;;;;;;;;2072181;28;20030;-79
2022/03/25 00:24:26;;;;;;;9.63;6.25;;;;;;;;;;2070027;28;20475;-79
2022/03/25 00:25:45;;;;;;;11.40;6.72;;;;;;;;;;2072981;28;20030;-79
2022/03/25 00:27:04;;;;;;;7.90;6.07;;;;;;;;;;2073134;28;20034;-79
2022/03/25 00:28:23;;;;;;;9.65;6.35;;;;;;;;;;2077777;28;20045;-80
2022/03/25 00:29:42;;;;;;;7.68;6.15;;;;;;;;;;2074027;28;20156;-79
2022/03/25 00:31:01;;;;;;;10.75;6.70;;;;;;;;;;2074378;28;20418;-79
2022/03/25 00:32:22;;;;;;;13.30;6.90;;;;;;;;;;2072594;28;20025;-79
2022/03/25 00:33:43;;;;;;;10.30;6.85;;;;;;;;;;2075146;28;20033;-79
2022/03/25 00:35:04;;;;;;;9.07;6.45;;;;;;;;;;2075261;28;20085;-80
2022/03/25 00:36:23;;;;;;;14.25;6.30;;;;;;;;;;2074564;28;20522;-80
2022/03/25 00:37:42;;;;;;;12.23;6.93;;;;;;;;;;2073428;28;20103;-80
2022/03/25 00:39:01;;;;;;;10.25;6.93;;;;;;;;;;2073532;28;20034;-79
2022/03/25 00:40:20;;;;;;;8.05;6.85;;;;;;;;;;2073532;28;20018;-79
2022/03/25 00:41:40;;;;;;;11.52;7.30;;;;;;;;;;2073303;28;20033;-79
2022/03/25 00:42:59;;;;;;;12.02;7.13;;;;;;;;;;2069056;28;20033;-79
2022/03/25 00:44:18;;;;;;;11.48;7.28;;;;;;;;;;2070196;28;20022;-79
2022/03/25 00:45:37;;;;;;;8.38;6.82;;;;;;;;;;2073214;28;20030;-80
2022/03/25 00:46:55;;;;;;;15.27;6.68;;;;;;;;;;2073532;28;20026;-79
2022/03/25 00:48:14;;;;;;;13.10;8.13;;;;;;;;;;2072911;28;20042;-80
2022/03/25 00:49:33;;;;;;;12.60;7.50;;;;;;;;;;2073783;28;20519;-79
2022/03/25 00:50:52;;;;;;;10.90;6.55;;;;;;;;;;2073589;28;20038;-80
2022/03/25 00:52:12;;;;;;;10.57;7.13;;;;;;;;;;2073150;28;20030;-79
2022/03/25 00:53:31;;;;;;;14.63;7.25;;;;;;;;;;2073464;28;20109;-79
2022/03/25 00:54:50;;;;;;;12.63;6.97;;;;;;;;;;2069498;28;20139;-79
2022/03/25 00:56:09;;;;;;;13.48;8.57;;;;;;;;;;2071981;28;20030;-79
2022/03/25 00:57:28;;;;;;;9.65;7.75;;;;;;;;;;2072808;28;20113;-79
2022/03/25 00:58:47;;;;;;;13.98;7.88;;;;;;;;;;2073904;28;20531;-80
2022/03/25 01:00:07;;;;;;;10.73;7.72;;;;;;;;;;2073349;28;20030;-79
2022/03/25 01:01:26;;;;;;;11.77;6.80;;;;;;;;;;2069755;28;20022;-79
2022/03/25 01:02:45;;;;;;;9.10;6.97;;;;;;;;;;2067790;28;20026;-80
2022/03/25 01:04:04;;;;;;;9.27;7.63;;;;;;;;;;2070310;28;20586;-80
2022/03/25 01:05:23;;;;;;;12.63;7.40;;;;;;;;;;2073853;28;20026;-79
2022/03/25 01:06:43;;;;;;;10.77;7.20;;;;;;;;;;2073355;28;20034;-79
2022/03/25 01:08:03;;;;;;;10.88;7.72;;;;;;;;;;2073166;28;20033;-79
2022/03/25 01:09:22;;;;;;;11.65;7.30;;;;;;;;;;2073507;28;20078;-80
2022/03/25 01:10:41;;;;;;;9.48;7.55;;;;;;;;;;2071145;28;20592;-79
2022/03/25 01:12:00;;;;;;;8.65;7.22;;;;;;;;;;2070657;28;20030;-80
2022/03/25 01:13:19;;;;;;;11.27;8.27;;;;;;;;;;2070096;28;20037;-79
2022/03/25 01:14:39;;;;;;;11.88;6.85;;;;;;;;;;2074295;28;20041;-79
2022/03/25 01:15:58;;;;;;;9.85;6.63;;;;;;;;;;2080487;28;20511;-80
2022/03/25 01:17:17;;;;;;;9.32;7.40;;;;;;;;;;2072797;28;20479;-80
2022/03/25 01:18:36;;;;;;;13.68;8.07;;;;;;;;;;2073511;28;20539;-79
2022/03/25 01:19:58;;;;;;;14.88;7.90;;;;;;;;;;2073567;28;20038;-78
2022/03/25 01:21:17;;;;;;;9.93;7.25;;;;;;;;;;2073680;28;20022;-79
2022/03/25 01:22:36;;;;;;;12.20;7.93;;;;;;;;;;2072538;28;20029;-79
2022/03/25 01:23:56;;;;;;;12.48;7.78;;;;;;;;;;2075759;28;20046;-79
2022/03/25 01:25:16;;;;;;;12.07;7.30;;;;;;;;;;2071855;28;20026;-80
2022/03/25 01:26:36;;;;;;;13.27;7.53;;;;;;;;;;2075829;28;20034;-80
2022/03/25 01:27:55;;;;;;;12.75;7.10;;;;;;;;;;2074592;28;20026;-80
2022/03/25 01:29:14;;;;;;;10.32;7.35;;;;;;;;;;2074676;28;20041;-79
2022/03/25 01:30:33;;;;;;;9.63;7.68;;;;;;;;;;2074048;28;20030;-79
2022/03/25 01:31:52;;;;;;;9.68;7.43;;;;;;;;;;2070595;28;20034;-79
2022/03/25 01:33:10;;;;;;;11.93;8.43;;;;;;;;;;2070592;28;21501;-79
2022/03/25 01:34:29;;;;;;;14.85;8.60;;;;;;;;;;2078656;28;20033;-79
2022/03/25 01:35:48;;;;;;;13.05;7.82;;;;;;;;;;2072616;28;20034;-79
2022/03/25 01:37:08;;;;;;;13.57;7.82;;;;;;;;;;2073835;28;20026;-79
2022/03/25 01:38:27;;;;;;;16.45;8.65;;;;;;;;;;2073053;28;20045;-79
2022/03/25 01:39:45;;;;;;;11.57;8.52;;;;;;;;;;2070524;28;20034;-79
2022/03/25 01:41:04;;;;;;;12.73;7.93;;;;;;;;;;2073440;28;20026;-79
2022/03/25 01:42:34;;;;;;;12.07;7.93;;;;;;;;;;2072879;28;20021;-79
2022/03/25 01:43:54;;;;;;;14.65;8.27;;;;;;;;;;2079535;28;20033;-79
2022/03/25 01:45:13;;;;;;;13.05;8.70;;;;;;;;;;2069494;28;20054;-79
2022/03/25 01:46:33;;;;;;;13.77;8.73;;;;;;;;;;2068671;28;20106;-79
2022/03/25 01:47:52;;;;;;;10.88;7.90;;;;;;;;;;2069312;28;20105;-79
2022/03/25 01:49:13;;;;;;;16.88;9.30;;;;;;;;;;2069921;28;20030;-79
2022/03/25 01:50:32;;;;;;;10.95;7.88;;;;;;;;;;2069102;28;20034;-79
2022/03/25 01:51:51;;;;;;;12.10;7.95;;;;;;;;;;2072249;28;20038;-80
2022/03/25 01:53:12;;;;;;;16.38;7.90;;;;;;;;;;2072561;28;21419;-79
2022/03/25 01:54:32;;;;;;;13.95;9.00;;;;;;;;;;2075274;28;20029;-79
2022/03/25 01:55:51;;;;;;;13.05;8.77;;;;;;;;;;2071938;28;20065;-79
2022/03/25 01:57:10;;;;;;;12.05;8.35;;;;;;;;;;2069171;28;20038;-79
2022/03/25 01:58:30;;;;;;;11.40;8.13;;;;;;;;;;2072172;28;20034;-80
2022/03/25 01:59:48;;;;;;;19.13;8.98;;;;;;;;;;2072826;28;20383;-79
2022/03/25 02:01:07;;;;;;;13.90;8.45;;;;;;;;;;2072825;28;20030;-79
2022/03/25 02:02:26;;;;;;;16.40;8.15;;;;;;;;;;2069724;28;20515;-80
2022/03/25 02:03:45;;;;;;;15.10;8.60;;;;;;;;;;2072698;28;20030;-80
2022/03/25 02:05:05;;;;;;;17.80;8.65;;;;;;;;;;2072718;28;20021;-79
2022/03/25 02:06:23;;;;;;;9.60;7.88;;;;;;;;;;2073442;28;20034;-80
2022/03/25 02:07:42;;;;;;;12.52;7.53;;;;;;;;;;2070638;28;20034;-80
2022/03/25 02:09:01;;;;;;;10.40;8.10;;;;;;;;;;2072699;28;20029;-80
2022/03/25 02:10:20;;;;;;;11.32;8.27;;;;;;;;;;2072434;28;20030;-77
2022/03/25 02:11:40;;;;;;;12.57;8.43;;;;;;;;;;2073136;28;20026;-79
2022/03/25 02:13:02;;;;;;;11.43;8.00;;;;;;;;;;2073009;28;20554;-80
2022/03/25 02:14:22;;;;;;;11.30;8.07;;;;;;;;;;2071928;28;20124;-80
2022/03/25 02:15:42;;;;;;;15.25;8.32;;;;;;;;;;2073076;28;20030;-80
2022/03/25 02:17:01;;;;;;;12.30;7.82;;;;;;;;;;2072846;28;20034;-79
2022/03/25 02:18:20;;;;;;;13.52;8.23;;;;;;;;;;2073826;28;20453;-79
2022/03/25 02:19:39;;;;;;;12.93;9.00;;;;;;;;;;2070487;28;20507;-79
2022/03/25 02:20:59;;;;;;;20.23;9.25;;;;;;;;;;2072066;28;20030;-80
2022/03/25 02:22:18;;;;;;;14.75;9.48;;;;;;;;;;2072961;28;20022;-80
2022/03/25 02:23:38;;;;;;;13.18;8.30;;;;;;;;;;2072532;28;20017;-80
2022/03/25 02:24:58;;;;;;;12.65;8.55;;;;;;;;;;2073052;28;20061;-79
2022/03/25 02:26:16;;;;;;;11.80;8.15;;;;;;;;;;2072629;28;20034;-79
2022/03/25 02:27:36;;;;;;;14.60;8.63;;;;;;;;;;2071778;28;20133;-80
2022/03/25 02:28:56;;;;;;;13.05;7.95;;;;;;;;;;2072190;28;20388;-80
2022/03/25 02:30:15;;;;;;;20.88;8.65;;;;;;;;;;2071751;28;20116;-77
2022/03/25 02:31:34;;;;;;;10.25;8.27;;;;;;;;;;2072686;28;20034;-79
2022/03/25 02:33:01;;;;;;;13.65;9.32;;;;;;;;;;2072906;28;20419;-80
2022/03/25 02:34:20;;;;;;;15.40;8.98;;;;;;;;;;2074618;28;20018;-80
2022/03/25 02:35:48;;;;;;;12.55;8.40;;;;;;;;;;2070533;28;20046;-80
2022/03/25 02:37:07;;;;;;;15.00;8.90;;;;;;;;;;2075377;28;20017;-79
2022/03/25 02:38:26;;;;;;;12.25;8.68;;;;;;;;;;2074513;28;20045;-79
2022/03/25 02:39:45;;;;;;;16.90;9.65;;;;;;;;;;2072136;28;20054;-80
2022/03/25 02:41:05;;;;;;;12.88;9.45;;;;;;;;;;2072436;28;20431;-78
2022/03/25 02:42:24;;;;;;;14.30;8.80;;;;;;;;;;2072418;28;20026;-77
2022/03/25 02:43:43;;;;;;;16.73;9.07;;;;;;;;;;2068696;28;20507;-80
2022/03/25 02:45:03;;;;;;;10.35;8.82;;;;;;;;;;2072284;28;20022;-77
2022/03/25 02:46:22;;;;;;;10.98;8.82;;;;;;;;;;2072110;28;20022;-78
2022/03/25 02:47:41;;;;;;;14.55;9.07;;;;;;;;;;2071681;28;20088;-78
2022/03/25 02:49:01;;;;;;;13.93;8.75;;;;;;;;;;2072065;28;20026;-80
2022/03/25 02:50:21;;;;;;;11.80;8.90;;;;;;;;;;2073032;28;20026;-78
2022/03/25 02:51:40;;;;;;;17.17;8.70;;;;;;;;;;2068424;28;20038;-80
2022/03/25 02:52:59;;;;;;;20.88;9.50;;;;;;;;;;2069380;28;20431;-79
2022/03/25 02:54:18;;;;;;;12.80;9.07;;;;;;;;;;2071742;28;20447;-80
2022/03/25 02:55:40;;;;;;;13.65;9.10;;;;;;;;;;2072522;28;20026;-80
2022/03/25 02:56:59;;;;;;;14.65;9.38;;;;;;;;;;2072785;28;20046;-79
2022/03/25 02:58:19;;;;;;;13.45;8.80;;;;;;;;;;2068694;28;20022;-79
2022/03/25 02:59:41;;;;;;;12.30;9.13;;;;;;;;;;2068906;28;20458;-78
2022/03/25 03:01:00;;;;;;;11.18;9.00;;;;;;;;;;2074840;28;20043;-77
2022/03/25 03:02:19;;;;;;;14.07;9.88;;;;;;;;;;2070770;28;20555;-78
2022/03/25 03:03:38;;;;;;;10.27;8.70;;;;;;;;;;2071596;28;20038;-79
2022/03/25 03:04:57;;;;;;;14.80;9.40;;;;;;;;;;2070773;28;20525;-80
2022/03/25 03:06:18;;;;;;;14.63;10.07;;;;;;;;;;2074705;28;20423;-80
2022/03/25 03:07:37;;;;;;;12.32;8.60;;;;;;;;;;2074438;28;20018;-80
2022/03/25 03:08:56;;;;;;;17.58;9.25;;;;;;;;;;2075034;28;20030;-79
2022/03/25 03:10:16;;;;;;;17.88;9.73;;;;;;;;;;2072024;28;20038;-78
2022/03/25 03:11:37;;;;;;;17.90;9.85;;;;;;;;;;2070734;28;20026;-79
2022/03/25 03:12:56;;;;;;;13.18;9.10;;;;;;;;;;2074152;28;20109;-79
2022/03/25 03:14:15;;;;;;;13.93;9.43;;;;;;;;;;2073440;28;20052;-79
2022/03/25 03:15:34;;;;;;;13.45;9.30;;;;;;;;;;2071305;28;20034;-79
2022/03/25 03:16:53;;;;;;;12.35;8.77;;;;;;;;;;2070390;28;20416;-80
2022/03/25 03:18:12;;;;;;;14.23;10.02;;;;;;;;;;2074791;28;20083;-79
2022/03/25 03:19:31;;;;;;;13.73;9.65;;;;;;;;;;2073084;28;20018;-79
2022/03/25 03:20:50;;;;;;;14.90;10.35;;;;;;;;;;2075285;28;20438;-79
2022/03/25 03:22:08;;;;;;;13.55;9.90;;;;;;;;;;2069378;28;20061;-79
2022/03/25 03:23:27;;;;;;;14.43;8.88;;;;;;;;;;2072856;28;20033;-80
2022/03/25 03:24:46;;;;;;;16.75;9.75;;;;;;;;;;2071999;28;20038;-80
2022/03/25 03:26:05;;;;;;;17.50;10.18;;;;;;;;;;2072830;28;20034;-80
2022/03/25 03:27:33;;;;;;;16.05;10.52;;;;;;;;;;2069410;28;20030;-79
2022/03/25 03:28:53;;;;;;;14.95;10.20;;;;;;;;;;2074923;28;20065;-80
2022/03/25 03:30:12;;;;;;;17.13;9.93;;;;;;;;;;2074723;28;20089;-78
2022/03/25 03:31:31;;;;;;;14.15;9.18;;;;;;;;;;2071909;28;20495;-79
2022/03/25 03:32:55;;;;;;;12.80;10.18;;;;;;;;;;2072275;28;20030;-79
2022/03/25 03:34:14;;;;;;;12.25;9.32;;;;;;;;;;2072094;28;20395;-79
2022/03/25 03:35:36;;;;;;;13.68;9.45;;;;;;;;;;2071702;28;20038;-79
2022/03/25 03:36:55;;;;;;;13.18;8.93;;;;;;;;;;2072200;28;20030;-79
2022/03/25 03:38:14;;;;;;;17.60;10.27;;;;;;;;;;2071595;28;20046;-79
2022/03/25 03:39:33;;;;;;;17.30;9.98;;;;;;;;;;2072038;28;20024;-79
2022/03/25 03:40:52;;;;;;;17.73;10.07;;;;;;;;;;2072823;28;20025;-79
2022/03/25 03:42:11;;;;;;;15.20;9.90;;;;;;;;;;2071514;28;20018;-80
2022/03/25 03:43:30;;;;;;;17.20;10.10;;;;;;;;;;2072411;28;20030;-79
2022/03/25 03:44:48;;;;;;;15.48;9.85;;;;;;;;;;2072149;28;20026;-79
2022/03/25 03:46:08;;;;;;;15.27;9.63;;;;;;;;;;2072590;28;20034;-79
2022/03/25 03:47:27;;;;;;;15.50;9.25;;;;;;;;;;2072153;28;20026;-80
2022/03/25 03:48:48;;;;;;;17.10;9.63;;;;;;;;;;2068902;28;20026;-79
2022/03/25 03:50:09;;;;;;;13.32;9.90;;;;;;;;;;2077630;28;20037;-79
2022/03/25 03:51:28;;;;;;;17.92;10.45;;;;;;;;;;2074837;28;20026;-80
2022/03/25 03:52:50;;;;;;;16.38;9.85;;;;;;;;;;2068868;28;20475;-79
2022/03/25 03:54:09;;;;;;;13.50;9.07;;;;;;;;;;2072133;28;20022;-80
2022/03/25 03:55:27;;;;;;;14.57;9.45;;;;;;;;;;2072560;28;20486;-79
2022/03/25 03:56:46;;;;;;;13.70;9.75;;;;;;;;;;2072029;28;20026;-79
2022/03/25 03:58:05;;;;;;;18.27;9.32;;;;;;;;;;2069347;28;20034;-80
2022/03/25 03:59:24;;;;;;;12.82;9.32;;;;;;;;;;2073573;28;20025;-79
2022/03/25 04:00:43;;;;;;;20.23;9.60;;;;;;;;;;2073358;28;20509;-79
2022/03/25 04:02:03;;;;;;;17.10;9.90;;;;;;;;;;2073348;28;20598;-79
2022/03/25 04:03:21;;;;;;;16.98;10.25;;;;;;;;;;2073638;28;20030;-79
2022/03/25 04:04:41;;;;;;;18.08;9.30;;;;;;;;;;2073615;28;20399;-80
2022/03/25 04:06:00;;;;;;;14.07;10.05;;;;;;;;;;2070599;28;20385;-79
2022/03/25 04:07:20;;;;;;;14.05;9.75;;;;;;;;;;2074180;28;20026;-79
2022/03/25 04:08:39;;;;;;;12.93;9.88;;;;;;;;;;2073509;28;20026;-80
2022/03/25 04:10:03;;;;;;;14.30;9.82;;;;;;;;;;2073434;28;20030;-79
2022/03/25 04:11:22;;;;;;;16.23;10.00;;;;;;;;;;2071361;28;20030;-80
2022/03/25 04:12:41;;;;;;;13.23;8.90;;;;;;;;;;2073125;28;20038;-80
2022/03/25 04:13:59;;;;;;;20.40;10.35;;;;;;;;;;2073642;28;20034;-80
2022/03/25 04:15:19;;;;;;;15.00;9.70;;;;;;;;;;2073355;28;20038;-79
2022/03/25 04:16:38;;;;;;;14.50;10.07;;;;;;;;;;2073805;28;20515;-79
2022/03/25 04:17:58;;;;;;;16.70;9.30;;;;;;;;;;2070514;28;20030;-79
2022/03/25 04:19:17;;;;;;;12.77;9.50;;;;;;;;;;2072741;28;20022;-79
2022/03/25 04:20:36;;;;;;;19.90;9.90;;;;;;;;;;2073504;28;20038;-79
2022/03/25 04:21:55;;;;;;;14.85;9.48;;;;;;;;;;2074066;28;20073;-78
2022/03/25 04:23:13;;;;;;;11.57;9.50;;;;;;;;;;2070362;28;20058;-79
2022/03/25 04:24:32;;;;;;;14.95;9.20;;;;;;;;;;2073746;28;20018;-79
2022/03/25 04:25:51;;;;;;;16.95;10.23;;;;;;;;;;2074112;28;20542;-79
2022/03/25 04:27:10;;;;;;;13.75;9.65;;;;;;;;;;2073524;28;20034;-79
2022/03/25 04:28:29;;;;;;;14.65;9.35;;;;;;;;;;2073577;28;20491;-80
2022/03/25 04:29:48;;;;;;;13.68;10.18;;;;;;;;;;2073405;28;20046;-79
2022/03/25 04:31:07;;;;;;;16.98;9.30;;;;;;;;;;2072988;28;20112;-79
2022/03/25 04:32:26;;;;;;;14.68;9.38;;;;;;;;;;2075727;28;20037;-79
2022/03/25 04:33:45;;;;;;;14.35;9.95;;;;;;;;;;2073821;28;20112;-79
2022/03/25 04:35:05;;;;;;;13.15;9.00;;;;;;;;;;2070241;28;20057;-80
2022/03/25 04:36:24;;;;;;;18.55;9.13;;;;;;;;;;2070063;28;20514;-79
2022/03/25 04:37:43;;;;;;;16.30;10.05;;;;;;;;;;2070192;28;20042;-79
2022/03/25 04:39:02;;;;;;;13.40;9.30;;;;;;;;;;2074152;28;20030;-79
2022/03/25 04:40:22;;;;;;;14.20;9.45;;;;;;;;;;2073084;28;20026;-79
2022/03/25 04:41:41;;;;;;;14.77;8.38;;;;;;;;;;2074175;28;20400;-79
2022/03/25 04:43:00;;;;;;;13.02;9.48;;;;;;;;;;2075756;28;20486;-79
2022/03/25 04:44:19;;;;;;;16.02;8.90;;;;;;;;;;2075732;28;20018;-79
2022/03/25 04:45:43;;;;;;;13.13;9.30;;;;;;;;;;2073388;28;20026;-79
2022/03/25 04:47:03;;;;;;;17.33;9.48;;;;;;;;;;2077248;28;20042;-80
2022/03/25 04:48:22;;;;;;;13.52;9.38;;;;;;;;;;2073680;28;20030;-79
2022/03/25 04:49:41;;;;;;;14.98;9.93;;;;;;;;;;2075888;28;20514;-78
2022/03/25 04:51:00;;;;;;;12.18;8.48;;;;;;;;;;2074602;28;20038;-79
2022/03/25 04:52:19;;;;;;;11.98;9.65;;;;;;;;;;2066598;28;20026;-79
2022/03/25 04:53:38;;;;;;;11.70;9.68;;;;;;;;;;2071147;28;20617;-79
2022/03/25 04:54:58;;;;;;;14.80;9.68;;;;;;;;;;2075593;28;20033;-79
2022/03/25 04:56:17;;;;;;;16.15;10.00;;;;;;;;;;2074466;28;20038;-79
2022/03/25 04:57:35;;;;;;;16.58;9.77;;;;;;;;;;2074606;28;20041;-79
2022/03/25 04:58:54;;;;;;;12.57;8.95;;;;;;;;;;2070906;28;20050;-80
2022/03/25 05:00:14;;;;;;;21.65;9.57;;;;;;;;;;2071465;28;20022;-79
2022/03/25 05:01:34;;;;;;;15.23;9.25;;;;;;;;;;2078212;28;20450;-79
2022/03/25 05:02:52;;;;;;;14.02;10.05;;;;;;;;;;2074363;28;20499;-79
2022/03/25 05:04:11;;;;;;;16.20;9.90;;;;;;;;;;2073467;28;20488;-79
2022/03/25 05:05:31;;;;;;;19.95;9.60;;;;;;;;;;2073455;28;20500;-80
2022/03/25 05:06:50;;;;;;;16.13;10.18;;;;;;;;;;2069488;28;20588;-80
2022/03/25 05:08:09;;;;;;;17.50;10.27;;;;;;;;;;2073539;28;20025;-79
2022/03/25 05:09:29;;;;;;;17.83;10.20;;;;;;;;;;2072610;28;20034;-80
2022/03/25 05:10:48;;;;;;;16.10;10.05;;;;;;;;;;2073445;28;20395;-80
2022/03/25 05:12:08;;;;;;;14.18;9.60;;;;;;;;;;2064429;28;20046;-80
2022/03/25 05:13:27;;;;;;;14.18;9.48;;;;;;;;;;2064499;28;20112;-80
2022/03/25 05:14:47;;;;;;;12.70;8.80;;;;;;;;;;2067600;28;20112;-79
2022/03/25 05:16:09;;;;;;;14.40;10.05;;;;;;;;;;2072561;28;20538;-79
2022/03/25 05:17:34;;;;;;;17.33;9.52;;;;;;;;;;2072290;28;20042;-80
2022/03/25 05:18:55;;;;;;;12.93;9.45;;;;;;;;;;2072434;28;20435;-80
2022/03/25 05:20:15;;;;;;;16.77;9.95;;;;;;;;;;2075040;28;20363;-79
2022/03/25 05:21:34;;;;;;;17.10;10.13;;;;;;;;;;2071425;28;20030;-80
2022/03/25 05:22:53;;;;;;;14.25;9.85;;;;;;;;;;2072353;28;20026;-81
2022/03/25 05:24:12;;;;;;;17.50;9.35;;;;;;;;;;2073495;28;20025;-80
2022/03/25 05:25:31;;;;;;;17.15;10.20;;;;;;;;;;2073130;28;20152;-79
2022/03/25 05:26:50;;;;;;;15.80;9.93;;;;;;;;;;2065652;28;20082;-80
2022/03/25 05:28:09;;;;;;;18.50;10.07;;;;;;;;;;2076207;28;20625;-80
2022/03/25 05:29:28;;;;;;;16.00;10.68;;;;;;;;;;2072238;28;20533;-80
2022/03/25 05:30:47;;;;;;;14.10;9.07;;;;;;;;;;2067983;28;20041;-80
2022/03/25 05:32:07;;;;;;;16.67;9.60;;;;;;;;;;2069259;28;20471;-82
2022/03/25 05:33:26;;;;;;;13.20;9.35;;;;;;;;;;2072836;28;20026;-80
2022/03/25 05:34:52;;;;;;;16.80;10.15;;;;;;;;;;2069277;28;20638;-80
2022/03/25 05:36:14;;;;;;;12.52;9.40;;;;;;;;;;2074227;28;20034;-80
2022/03/25 05:37:34;;;;;;;22.13;10.15;;;;;;;;;;2072155;28;20038;-80
2022/03/25 05:38:55;;;;;;;14.85;9.73;;;;;;;;;;2068075;28;20038;-82
2022/03/25 05:40:14;;;;;;;17.65;9.02;;;;;;;;;;2068881;28;20022;-79
2022/03/25 05:41:33;;;;;;;17.55;9.43;;;;;;;;;;2073407;28;20022;-79
2022/03/25 05:42:53;;;;;;;15.95;9.18;;;;;;;;;;2072907;28;20026;-80
2022/03/25 05:44:12;;;;;;;14.30;9.18;;;;;;;;;;2075147;28;20158;-81
2022/03/25 05:45:35;;;;;;;13.25;9.48;;;;;;;;;;2071690;28;20030;-80
2022/03/25 05:46:53;;;;;;;18.65;9.57;;;;;;;;;;2076876;28;20108;-79
2022/03/25 05:48:12;;;;;;;14.60;9.88;;;;;;;;;;2074567;28;20033;-80
2022/03/25 05:49:31;;;;;;;26.45;9.65;;;;;;;;;;2072384;28;20030;-80
2022/03/25 05:50:51;;;;;;;18.77;8.93;;;;;;;;;;2072218;28;20042;-80
2022/03/25 05:52:10;;;;;;;16.85;10.63;;;;;;;;;;2072401;28;20037;-80
2022/03/25 05:53:28;;;;;;;17.25;10.07;;;;;;;;;;2073551;28;20038;-79
2022/03/25 05:54:49;;;;;;;14.25;9.57;;;;;;;;;;2072868;28;20030;-79
2022/03/25 05:56:11;;;;;;;14.88;10.68;;;;;;;;;;2072358;28;20030;-80
2022/03/25 05:57:38;;;;;;;12.05;9.40;;;;;;;;;;2076690;28;20030;-81
2022/03/25 05:58:57;;;;;;;17.48;10.45;;;;;;;;;;2077047;28;20034;-81
2022/03/25 06:00:19;;;;;;;20.30;10.13;;;;;;;;;;2069397;28;20030;-79
2022/03/25 06:01:38;;;;;;;20.40;9.85;;;;;;;;;;2072588;28;20034;-79
2022/03/25 06:02:57;;;;;;;13.30;8.85;;;;;;;;;;2069219;28;20042;-78
2022/03/25 06:04:16;;;;;;;15.13;8.98;;;;;;;;;;2072510;28;20082;-79
2022/03/25 06:05:35;;;;;;;16.00;10.48;;;;;;;;;;2073281;28;20037;-79
2022/03/25 06:06:57;;;;;;;15.13;9.77;;;;;;;;;;2073001;28;20407;-79
2022/03/25 06:08:16;;;;;;;15.82;9.77;;;;;;;;;;2070300;28;20395;-80
2022/03/25 06:09:35;;;;;;;13.60;9.90;;;;;;;;;;2072266;28;20407;-79
2022/03/25 06:10:55;;;;;;;14.10;10.00;;;;;;;;;;2073185;28;20037;-79
2022/03/25 06:12:14;;;;;;;19.85;10.52;;;;;;;;;;2068756;28;20038;-79
2022/03/25 06:13:33;;;;;;;16.30;9.82;;;;;;;;;;2071484;28;20113;-79
2022/03/25 06:14:52;;;;;;;22.65;10.75;;;;;;;;;;2068752;28;20041;-79
2022/03/25 06:16:17;;;;;;;13.68;9.68;;;;;;;;;;2067660;28;20026;-79
2022/03/25 06:17:43;;;;;;;14.52;10.35;;;;;;;;;;2069296;28;20038;-79
2022/03/25 06:19:04;;;;;;;19.90;9.25;;;;;;;;;;2071980;28;20037;-79
2022/03/25 06:20:23;;;;;;;17.25;10.23;;;;;;;;;;2072267;28;20491;-81
2022/03/25 06:21:42;;;;;;;18.60;9.50;;;;;;;;;;2063973;28;20042;-79
2022/03/25 06:23:01;;;;;;;15.70;9.45;;;;;;;;;;2069188;28;20030;-79
2022/03/25 06:24:20;;;;;;;13.50;9.57;;;;;;;;;;2072742;28;20483;-79
2022/03/25 06:25:40;;;;;;;17.55;9.75;;;;;;;;;;2072081;28;20057;-78
2022/03/25 06:26:59;;;;;;;17.45;10.15;;;;;;;;;;2071382;28;20097;-79
2022/03/25 06:28:21;;;;;;;18.65;10.23;;;;;;;;;;2072271;28;20116;-80
2022/03/25 06:29:40;;;;;;;14.18;10.25;;;;;;;;;;2073528;28;20514;-79
2022/03/25 06:30:59;;;;;;;20.83;10.50;;;;;;;;;;2069278;28;20045;-79
2022/03/25 06:32:19;;;;;;;14.93;10.15;;;;;;;;;;2066235;28;20057;-79
2022/03/25 06:33:41;;;;;;;14.85;10.07;;;;;;;;;;2068229;28;20037;-79
2022/03/25 06:35:07;;;;;;;19.30;10.35;;;;;;;;;;2072478;28;20033;-79
2022/03/25 06:36:29;;;;;;;16.17;10.52;;;;;;;;;;2073758;28;20387;-79
2022/03/25 06:37:49;;;;;;;21.15;10.65;;;;;;;;;;2073023;28;20038;-79
2022/03/25 06:39:10;;;;;;;17.05;10.15;;;;;;;;;;2071554;28;20053;-80
2022/03/25 06:40:29;;;;;;;17.08;10.70;;;;;;;;;;2072406;28;20025;-80
2022/03/25 06:41:51;;;;;;;19.13;10.30;;;;;;;;;;2072290;28;20038;-79
2022/03/25 06:43:10;;;;;;;17.55;10.65;;;;;;;;;;2069407;28;20014;-79
2022/03/25 06:44:30;;;;;;;22.67;10.13;;;;;;;;;;2069440;28;20018;-79
2022/03/25 06:45:50;;;;;;;24.20;10.13;;;;;;;;;;2073248;28;20034;-79
2022/03/25 06:47:09;;;;;;;15.30;10.25;;;;;;;;;;2071791;28;20113;-79
2022/03/25 06:48:31;;;;;;;18.40;10.90;;;;;;;;;;2068898;28;20026;-79
2022/03/25 06:49:51;;;;;;;16.83;10.23;;;;;;;;;;2073624;28;20391;-80
2022/03/25 06:51:10;;;;;;;17.42;11.35;;;;;;;;;;2069628;28;20034;-80
2022/03/25 06:52:29;;;;;;;19.83;10.27;;;;;;;;;;2068706;28;20127;-79
2022/03/25 06:53:48;;;;;;;13.63;9.90;;;;;;;;;;2071911;28;20070;-79
2022/03/25 06:55:08;;;;;;;20.30;10.07;;;;;;;;;;2072887;28;20548;-79
2022/03/25 06:56:32;;;;;;;17.65;10.32;;;;;;;;;;2070420;28;20033;-79
2022/03/25 06:57:51;;;;;;;16.20;10.38;;;;;;;;;;2075821;28;20137;-79
2022/03/25 06:59:11;;;;;;;14.70;9.45;;;;;;;;;;2071451;28;20025;-79
2022/03/25 07:00:34;;;;;;;16.52;9.77;;;;;;;;;;2072309;28;20034;-79
2022/03/25 07:01:54;;;;;;;13.18;9.75;;;;;;;;;;2073556;28;20065;-79
2022/03/25 07:03:14;;;;;;;15.65;10.15;;;;;;;;;;2072741;28;20030;-79
2022/03/25 07:04:36;;;;;;;15.98;9.93;;;;;;;;;;2072622;28;20541;-79
2022/03/25 07:05:56;;;;;;;16.20;10.88;;;;;;;;;;2073086;28;20026;-79
2022/03/25 07:07:18;;;;;;;17.98;10.73;;;;;;;;;;2072882;28;20022;-79
2022/03/25 07:08:38;;;;;;;20.52;11.73;;;;;;;;;;2073028;28;20030;-80
2022/03/25 07:09:58;;;;;;;21.08;10.32;;;;;;;;;;2073873;28;20030;-79
2022/03/25 07:11:17;;;;;;;13.93;10.90;;;;;;;;;;2073065;28;20454;-79
2022/03/25 07:12:37;;;;;;;18.42;10.88;;;;;;;;;;2072501;28;20033;-80
2022/03/25 07:13:56;;;;;;;22.33;10.05;;;;;;;;;;2076718;28;20029;-79
2022/03/25 07:15:15;;;;;;;18.35;11.07;;;;;;;;;;2076240;28;20038;-79
2022/03/25 07:16:37;;;;;;;18.75;10.52;;;;;;;;;;2071967;28;20061;-79
2022/03/25 07:17:56;;;;;;;15.77;10.75;;;;;;;;;;2072705;28;20037;-80
2022/03/25 07:19:17;;;;;;;14.10;10.07;;;;;;;;;;2074036;28;20124;-80
2022/03/25 07:20:36;;;;;;;19.80;10.48;;;;;;;;;;2072484;28;20030;-80
2022/03/25 07:21:55;;;;;;;18.90;10.20;;;;;;;;;;2071749;28;20022;-79
2022/03/25 07:23:15;;;;;;;20.83;10.80;;;;;;;;;;2072150;28;20026;-80
2022/03/25 07:24:34;;;;;;;20.67;10.48;;;;;;;;;;2069009;28;20109;-80
2022/03/25 07:25:54;;;;;;;18.38;10.43;;;;;;;;;;2069012;28;20558;-80
2022/03/25 07:27:13;;;;;;;22.05;10.82;;;;;;;;;;2069098;28;20046;-79
2022/03/25 07:28:32;;;;;;;18.52;9.77;;;;;;;;;;2076387;28;20026;-79
2022/03/25 07:29:52;;;;;;;21.13;11.18;;;;;;;;;;2073054;28;20057;-79
2022/03/25 07:31:16;;;;;;;17.17;10.48;;;;;;;;;;2065264;28;20038;-79
2022/03/25 07:32:36;;;;;;;18.15;10.20;;;;;;;;;;2068190;28;20108;-79
2022/03/25 07:33:58;;;;;;;14.20;9.65;;;;;;;;;;2073247;28;20097;-80
2022/03/25 07:37:18;;;;;;;15.23;9.73;;;;;;;;;;2075566;28;20398;-81
2022/03/25 07:38:37;;;;;;;19.05;10.38;;;;;;;;;;2073690;28;20435;-80
2022/03/25 07:39:58;;;;;;;17.38;9.43;;;;;;;;;;2070611;28;20104;-80
2022/03/25 07:41:23;;;;;;;16.02;9.65;;;;;;;;;;2073565;28;20021;-80
2022/03/25 07:42:45;;;;;;;17.02;9.98;;;;;;;;;;2073775;28;20061;-80
2022/03/25 07:44:04;;;;;;;16.27;10.02;;;;;;;;;;2070986;28;20482;-79
2022/03/25 07:45:46;;;;;;;33.17;10.43;;;;;;;;;;2070433;28;20105;-79
2022/03/25 07:47:06;;;;;;;17.73;10.20;;;;;;;;;;2074311;28;20026;-81
2022/03/25 07:48:25;;;;;;;11.73;8.85;;;;;;;;;;2073521;28;20538;-80
2022/03/25 07:49:44;;;;;;;15.30;9.07;;;;;;;;;;2074470;28;20112;-80
2022/03/25 07:51:05;;;;;;;16.67;10.40;;;;;;;;;;2074147;28;20483;-81
2022/03/25 07:52:24;;;;;;;17.83;10.82;;;;;;;;;;2073336;28;20034;-80